Time;durP1;ratioP1;P1;durP2;ratioP2;P2;SDS_P1;SDS_P2;PMS_P1;PMS_P2;Temp;Humidity;BMP_temperature;BMP_pressure;BME280_temperature;BME280_humidity;BME280_pressure;Samples;Min_cycle;Max_cycle;Signal;HPM_P1;HPM_P2
2021/10/31 00:00:51;;;;;;;1.05;0.45;;;;;;;;;;5036781;28;20025;-44
2021/10/31 00:03:17;;;;;;;0.77;0.32;;;;;;;;;;5038928;28;20035;-45
2021/10/31 00:05:43;;;;;;;2.45;0.15;;;;;;;;;;5042650;28;20048;-49
2021/10/31 00:08:08;;;;;;;0.98;0.70;;;;;;;;;;5035953;28;20480;-44
2021/10/31 00:10:34;;;;;;;5.57;0.35;;;;;;;;;;5040187;28;20372;-44
2021/10/31 00:13:00;;;;;;;0.20;0.13;;;;;;;;;;5038576;28;20024;-46
2021/10/31 00:15:25;;;;;;;1.88;0.65;;;;;;;;;;5040238;28;20024;-43
2021/10/31 00:17:50;;;;;;;4.25;0.47;;;;;;;;;;5035957;28;20020;-46
2021/10/31 00:20:16;;;;;;;1.92;0.50;;;;;;;;;;5039324;28;20017;-43
2021/10/31 00:22:44;;;;;;;0.10;0.10;;;;;;;;;;5036537;28;20167;-42
2021/10/31 00:25:09;;;;;;;2.80;0.50;;;;;;;;;;5036706;28;20664;-43
2021/10/31 00:27:35;;;;;;;1.27;0.20;;;;;;;;;;5034144;28;20029;-43
2021/10/31 00:30:00;;;;;;;4.45;0.80;;;;;;;;;;5035163;28;20025;-43
2021/10/31 00:32:25;;;;;;;10.25;0.82;;;;;;;;;;5036018;28;20025;-43
2021/10/31 00:34:51;;;;;;;2.95;0.38;;;;;;;;;;5032987;28;20021;-45
2021/10/31 00:37:16;;;;;;;2.28;0.45;;;;;;;;;;5038345;28;20053;-49
2021/10/31 00:39:42;;;;;;;6.45;1.30;;;;;;;;;;5036307;28;20025;-45
2021/10/31 00:42:07;;;;;;;3.38;0.60;;;;;;;;;;5036744;28;20427;-46
2021/10/31 00:44:32;;;;;;;2.90;0.93;;;;;;;;;;5038745;28;20471;-46
2021/10/31 00:46:58;;;;;;;1.85;0.65;;;;;;;;;;5034892;28;20045;-43
2021/10/31 00:49:23;;;;;;;0.57;0.30;;;;;;;;;;5037092;28;20029;-47
2021/10/31 00:51:48;;;;;;;1.30;0.47;;;;;;;;;;5036522;28;20385;-49
2021/10/31 00:54:14;;;;;;;3.00;0.95;;;;;;;;;;5036066;28;20794;-45
2021/10/31 00:56:39;;;;;;;3.15;0.82;;;;;;;;;;5034004;28;20025;-42
2021/10/31 00:59:05;;;;;;;2.47;0.98;;;;;;;;;;5035266;28;20025;-43
2021/10/31 01:01:31;;;;;;;0.75;0.20;;;;;;;;;;5034150;28;20079;-42
2021/10/31 01:03:57;;;;;;;4.72;0.93;;;;;;;;;;5032350;28;20017;-45
2021/10/31 01:06:22;;;;;;;8.68;0.80;;;;;;;;;;5032293;28;20103;-48
2021/10/31 01:09:10;;;;;;;1.25;0.32;;;;;;;;;;5033152;28;20385;-49
2021/10/31 01:11:54;;;;;;;1.98;1.00;;;;;;;;;;5024788;28;20053;-47
2021/10/31 01:14:25;;;;;;;2.83;1.10;;;;;;;;;;5036110;28;20026;-46
2021/10/31 01:16:50;;;;;;;;;;;;;;;;;;5038422;28;20032;-45
2021/10/31 01:19:31;;;;;;;0.20;0.20;;;;;;;;;;5035162;28;20324;-42
2021/10/31 01:22:09;;;;;;;0.70;0.40;;;;;;;;;;5039798;28;20845;-49
2021/10/31 01:24:34;;;;;;;1.45;0.20;;;;;;;;;;5038714;28;20553;-43
2021/10/31 01:27:09;;;;;;;0.45;0.25;;;;;;;;;;5038287;28;20116;-47
2021/10/31 01:29:34;;;;;;;0.50;0.30;;;;;;;;;;5032369;28;20029;-48
2021/10/31 01:32:19;;;;;;;0.38;0.10;;;;;;;;;;5035441;28;20028;-43
2021/10/31 01:34:50;;;;;;;0.40;0.13;;;;;;;;;;5035607;28;20025;-47
2021/10/31 01:37:15;;;;;;;0.10;0.10;;;;;;;;;;5034392;28;20025;-45
2021/10/31 01:40:02;;;;;;;0.50;0.17;;;;;;;;;;5034891;28;20716;-47
2021/10/31 01:42:33;;;;;;;0.38;0.22;;;;;;;;;;5031939;28;20032;-45
2021/10/31 01:44:58;;;;;;;;;;;;;;;;;;5037863;28;20030;-43
2021/10/31 01:47:43;;;;;;;0.20;0.20;;;;;;;;;;5038132;28;19983;-47
2021/10/31 01:50:14;;;;;;;0.00;0.00;;;;;;;;;;5038784;28;20029;-43
2021/10/31 01:52:50;;;;;;;0.35;0.28;;;;;;;;;;5038588;28;20023;-43
2021/10/31 01:55:19;;;;;;;0.20;0.20;;;;;;;;;;5035944;28;20431;-45
2021/10/31 01:57:48;;;;;;;0.10;0.10;;;;;;;;;;5041345;28;20022;-45
2021/10/31 02:00:14;;;;;;;0.40;0.20;;;;;;;;;;5039822;28;20095;-43
2021/10/31 02:02:41;;;;;;;0.00;0.00;;;;;;;;;;5039218;28;20473;-46
2021/10/31 02:05:08;;;;;;;1.02;0.10;;;;;;;;;;5038007;28;20381;-47
2021/10/31 02:07:35;;;;;;;1.55;0.45;;;;;;;;;;5041058;28;20021;-46
2021/10/31 02:10:01;;;;;;;0.30;0.10;;;;;;;;;;5040674;28;20397;-46
2021/10/31 02:12:26;;;;;;;3.10;0.60;;;;;;;;;;5036038;28;20070;-47
2021/10/31 02:14:52;;;;;;;5.28;0.43;;;;;;;;;;5038571;28;20021;-43
2021/10/31 02:17:19;;;;;;;0.68;0.30;;;;;;;;;;5034957;28;20090;-42
2021/10/31 02:19:46;;;;;;;6.80;0.30;;;;;;;;;;5036927;28;20481;-46
2021/10/31 02:22:15;;;;;;;0.30;0.10;;;;;;;;;;5038086;28;20032;-42
2021/10/31 02:24:41;;;;;;;0.55;0.10;;;;;;;;;;5040313;28;20024;-47
2021/10/31 02:27:19;;;;;;;2.72;0.13;;;;;;;;;;5040766;28;20243;-43
2021/10/31 02:29:55;;;;;;;0.13;0.10;;;;;;;;;;5037199;28;20496;-44
2021/10/31 02:32:22;;;;;;;0.10;0.10;;;;;;;;;;5040305;28;20029;-43
2021/10/31 02:34:48;;;;;;;0.47;0.10;;;;;;;;;;5039183;28;20025;-43
2021/10/31 02:37:13;;;;;;;0.70;0.30;;;;;;;;;;5034322;28;20017;-47
2021/10/31 02:39:38;;;;;;;4.00;0.38;;;;;;;;;;5034337;28;20025;-45
2021/10/31 02:42:04;;;;;;;1.65;0.38;;;;;;;;;;5035732;28;20105;-45
2021/10/31 02:44:30;;;;;;;0.03;0.03;;;;;;;;;;5038935;28;20033;-43
2021/10/31 02:46:55;;;;;;;3.25;0.82;;;;;;;;;;5035299;28;20045;-45
2021/10/31 02:49:21;;;;;;;0.28;0.10;;;;;;;;;;5040258;28;20067;-45
2021/10/31 02:52:01;;;;;;;0.10;0.10;;;;;;;;;;5037733;28;20069;-43
2021/10/31 02:54:45;;;;;;;0.47;0.13;;;;;;;;;;5035680;28;20017;-43
2021/10/31 02:57:14;;;;;;;0.20;0.17;;;;;;;;;;5036751;28;20029;-43
2021/10/31 02:59:39;;;;;;;1.38;0.43;;;;;;;;;;5039378;28;20025;-44
2021/10/31 03:02:05;;;;;;;0.20;0.20;;;;;;;;;;5036761;28;20083;-43
2021/10/31 03:04:30;;;;;;;4.53;1.10;;;;;;;;;;5036721;28;20029;-43
2021/10/31 03:06:56;;;;;;;1.98;0.30;;;;;;;;;;5036473;28;20144;-44
2021/10/31 03:09:30;;;;;;;4.10;0.52;;;;;;;;;;5035019;28;20538;-45
2021/10/31 03:12:00;;;;;;;0.63;0.20;;;;;;;;;;5034687;28;20127;-48
2021/10/31 03:14:25;;;;;;;1.13;0.40;;;;;;;;;;5035447;28;20453;-43
2021/10/31 03:16:50;;;;;;;2.95;0.85;;;;;;;;;;5038746;28;20053;-43
2021/10/31 03:19:16;;;;;;;1.27;0.40;;;;;;;;;;5036059;28;20013;-44
2021/10/31 03:21:41;;;;;;;5.85;0.22;;;;;;;;;;5037247;28;20420;-44
2021/10/31 03:24:12;;;;;;;0.20;0.20;;;;;;;;;;5040358;28;20027;-44
2021/10/31 03:26:37;;;;;;;;;;;;;;;;;;5038404;28;20055;-45
2021/10/31 03:29:03;;;;;;;1.20;0.57;;;;;;;;;;5033475;28;20347;-43
2021/10/31 03:31:28;;;;;;;8.88;0.73;;;;;;;;;;5036519;28;20096;-44
2021/10/31 03:33:54;;;;;;;2.92;0.85;;;;;;;;;;5036289;28;20397;-44
2021/10/31 03:36:19;;;;;;;5.40;0.75;;;;;;;;;;5035268;28;20116;-46
2021/10/31 03:38:44;;;;;;;1.55;0.38;;;;;;;;;;5038535;28;20012;-46
2021/10/31 03:41:10;;;;;;;13.50;1.58;;;;;;;;;;5035834;28;20021;-46
2021/10/31 03:43:35;;;;;;;0.65;0.40;;;;;;;;;;5035023;28;20453;-48
2021/10/31 03:46:00;;;;;;;1.75;0.40;;;;;;;;;;5036115;28;20121;-45
2021/10/31 03:48:26;;;;;;;2.88;0.88;;;;;;;;;;5036783;28;20071;-46
2021/10/31 03:50:51;;;;;;;0.30;0.25;;;;;;;;;;5036159;28;20029;-50
2021/10/31 03:53:16;;;;;;;3.75;0.95;;;;;;;;;;5035900;28;20033;-45
2021/10/31 03:55:42;;;;;;;4.65;0.82;;;;;;;;;;5039470;28;20036;-44
2021/10/31 03:58:07;;;;;;;2.70;1.63;;;;;;;;;;5034142;28;20460;-43
2021/10/31 04:00:33;;;;;;;2.25;0.80;;;;;;;;;;5032814;28;20018;-42
2021/10/31 04:02:58;;;;;;;35.17;1.73;;;;;;;;;;5037144;28;20025;-45
2021/10/31 04:05:24;;;;;;;4.65;1.88;;;;;;;;;;5037506;28;20032;-43
2021/10/31 04:07:50;;;;;;;18.55;1.23;;;;;;;;;;5037223;28;20029;-42
2021/10/31 04:10:15;;;;;;;4.07;1.77;;;;;;;;;;5038600;28;20033;-46
2021/10/31 04:12:41;;;;;;;11.55;1.48;;;;;;;;;;5036617;28;20017;-44
2021/10/31 04:15:06;;;;;;;2.45;1.20;;;;;;;;;;5039886;28;20025;-45
2021/10/31 04:17:32;;;;;;;3.08;0.60;;;;;;;;;;5038664;28;20024;-44
2021/10/31 04:19:57;;;;;;;2.72;0.98;;;;;;;;;;5036651;28;20022;-45
2021/10/31 04:22:23;;;;;;;6.20;1.83;;;;;;;;;;5035024;28;20412;-43
2021/10/31 04:24:48;;;;;;;10.70;0.85;;;;;;;;;;5035606;28;20049;-42
2021/10/31 04:27:13;;;;;;;5.03;1.38;;;;;;;;;;5036186;28;20053;-44
2021/10/31 04:29:39;;;;;;;6.00;2.60;;;;;;;;;;5034152;28;20068;-46
2021/10/31 04:32:04;;;;;;;4.90;0.68;;;;;;;;;;5036734;28;20389;-43
2021/10/31 04:34:30;;;;;;;3.38;0.85;;;;;;;;;;5032985;28;20488;-44
2021/10/31 04:36:56;;;;;;;3.35;1.30;;;;;;;;;;5036892;28;20022;-46
2021/10/31 04:39:21;;;;;;;4.30;1.48;;;;;;;;;;5035674;28;20555;-46
2021/10/31 04:41:47;;;;;;;1.52;0.50;;;;;;;;;;5038153;28;20465;-45
2021/10/31 04:44:13;;;;;;;2.45;1.25;;;;;;;;;;5036291;28;20028;-43
2021/10/31 04:46:39;;;;;;;1.42;0.60;;;;;;;;;;5038254;28;20092;-45
2021/10/31 04:49:04;;;;;;;4.15;1.08;;;;;;;;;;5033427;28;20026;-49
2021/10/31 04:51:29;;;;;;;6.35;1.10;;;;;;;;;;5037114;28;20013;-46
2021/10/31 04:53:55;;;;;;;2.20;0.70;;;;;;;;;;5037318;28;20018;-46
2021/10/31 04:56:23;;;;;;;2.97;0.95;;;;;;;;;;5032115;28;20029;-43
2021/10/31 04:58:49;;;;;;;3.92;1.33;;;;;;;;;;5035585;28;20045;-43
2021/10/31 05:01:14;;;;;;;6.70;1.45;;;;;;;;;;5034885;28;20037;-46
2021/10/31 05:03:39;;;;;;;3.58;1.00;;;;;;;;;;5035689;28;20014;-48
2021/10/31 05:06:05;;;;;;;5.75;1.42;;;;;;;;;;5035973;28;20114;-46
2021/10/31 05:08:30;;;;;;;3.47;1.10;;;;;;;;;;5034408;28;20480;-50
2021/10/31 05:10:56;;;;;;;11.98;1.85;;;;;;;;;;5039370;28;20531;-49
2021/10/31 05:13:21;;;;;;;7.47;1.50;;;;;;;;;;5038056;28;20432;-43
2021/10/31 05:15:46;;;;;;;8.30;0.52;;;;;;;;;;5037111;28;20473;-44
2021/10/31 05:18:12;;;;;;;2.42;0.73;;;;;;;;;;5038346;28;20032;-45
2021/10/31 05:20:38;;;;;;;1.30;0.40;;;;;;;;;;5041537;28;20022;-45
2021/10/31 05:23:03;;;;;;;4.70;0.50;;;;;;;;;;5041361;28;20029;-45
2021/10/31 05:25:28;;;;;;;2.83;1.05;;;;;;;;;;5039647;28;20036;-43
2021/10/31 05:27:54;;;;;;;3.65;0.17;;;;;;;;;;5041920;28;20156;-41
2021/10/31 05:30:19;;;;;;;4.22;1.48;;;;;;;;;;5036853;28;20685;-44
2021/10/31 05:32:46;;;;;;;1.08;0.50;;;;;;;;;;5037835;28;20076;-45
2021/10/31 05:35:12;;;;;;;2.00;0.43;;;;;;;;;;5038385;28;20026;-44
2021/10/31 05:37:45;;;;;;;6.95;0.88;;;;;;;;;;5036429;28;20024;-44
2021/10/31 05:40:12;;;;;;;1.05;0.45;;;;;;;;;;5037127;28;20029;-42
2021/10/31 05:42:38;;;;;;;3.38;0.85;;;;;;;;;;5040264;28;20013;-41
2021/10/31 05:45:04;;;;;;;1.30;0.63;;;;;;;;;;5039684;28;20171;-42
2021/10/31 05:47:30;;;;;;;1.83;0.60;;;;;;;;;;5035101;28;20124;-43
2021/10/31 05:49:55;;;;;;;0.65;0.32;;;;;;;;;;5038814;28;20036;-41
2021/10/31 05:52:21;;;;;;;0.52;0.22;;;;;;;;;;5039157;28;20464;-42
2021/10/31 05:54:46;;;;;;;8.55;0.70;;;;;;;;;;5039261;28;20477;-45
2021/10/31 05:57:12;;;;;;;5.43;0.75;;;;;;;;;;5036869;28;20397;-42
2021/10/31 05:59:37;;;;;;;9.02;1.00;;;;;;;;;;5037481;28;20040;-42
2021/10/31 06:02:03;;;;;;;3.40;1.13;;;;;;;;;;5038153;28;20388;-42
2021/10/31 06:04:29;;;;;;;1.98;0.70;;;;;;;;;;5037255;28;20507;-43
2021/10/31 06:06:55;;;;;;;2.55;0.60;;;;;;;;;;5039560;28;20033;-43
2021/10/31 06:09:20;;;;;;;10.90;2.15;;;;;;;;;;5039737;28;20033;-48
2021/10/31 06:11:45;;;;;;;4.07;1.17;;;;;;;;;;5043092;28;20013;-44
2021/10/31 06:14:11;;;;;;;3.50;0.85;;;;;;;;;;5039088;28;20478;-43
2021/10/31 06:16:37;;;;;;;4.63;1.20;;;;;;;;;;5040222;28;20060;-45
2021/10/31 06:19:02;;;;;;;2.92;0.80;;;;;;;;;;5041611;28;20472;-47
2021/10/31 06:21:28;;;;;;;0.82;0.60;;;;;;;;;;5037825;28;20048;-45
2021/10/31 06:23:53;;;;;;;2.70;0.80;;;;;;;;;;5037485;28;20437;-43
2021/10/31 06:26:18;;;;;;;14.20;1.30;;;;;;;;;;5041763;28;20084;-46
2021/10/31 06:28:43;;;;;;;0.98;0.52;;;;;;;;;;5039002;28;20501;-47
2021/10/31 06:31:09;;;;;;;4.38;1.25;;;;;;;;;;5042243;28;20628;-43
2021/10/31 06:33:34;;;;;;;6.07;0.80;;;;;;;;;;5034117;28;20040;-42
2021/10/31 06:36:00;;;;;;;1.90;1.20;;;;;;;;;;5039475;28;20547;-43
2021/10/31 06:38:26;;;;;;;2.38;0.60;;;;;;;;;;5037905;28;20018;-45
2021/10/31 06:40:51;;;;;;;1.83;1.13;;;;;;;;;;5036746;28;20028;-42
2021/10/31 06:43:16;;;;;;;2.30;0.85;;;;;;;;;;5037697;28;20109;-47
2021/10/31 06:45:42;;;;;;;4.75;1.02;;;;;;;;;;5037583;28;20106;-43
2021/10/31 06:48:07;;;;;;;0.75;0.57;;;;;;;;;;5035358;28;20433;-44
2021/10/31 06:50:32;;;;;;;9.23;1.20;;;;;;;;;;5039344;28;20635;-46
2021/10/31 06:52:58;;;;;;;1.90;0.95;;;;;;;;;;5037554;28;20060;-44
2021/10/31 06:55:23;;;;;;;40.05;5.10;;;;;;;;;;5038546;28;20571;-44
2021/10/31 06:57:48;;;;;;;7.57;2.97;;;;;;;;;;5036213;28;20031;-42
2021/10/31 07:00:14;;;;;;;17.38;12.70;;;;;;;;;;5039739;28;20520;-43
2021/10/31 07:02:40;;;;;;;13.70;12.10;;;;;;;;;;5036005;28;20029;-43
2021/10/31 07:05:05;;;;;;;4.75;3.17;;;;;;;;;;5037225;28;20056;-42
2021/10/31 07:07:30;;;;;;;3.00;1.48;;;;;;;;;;5038817;28;20413;-43
2021/10/31 07:09:56;;;;;;;11.48;1.73;;;;;;;;;;5035733;28;20025;-43
2021/10/31 07:12:21;;;;;;;4.57;1.63;;;;;;;;;;5037600;28;20021;-41
2021/10/31 07:14:47;;;;;;;2.10;0.85;;;;;;;;;;5038144;28;20376;-42
2021/10/31 07:17:12;;;;;;;8.70;1.90;;;;;;;;;;5039151;28;20037;-41
2021/10/31 07:19:37;;;;;;;22.08;19.88;;;;;;;;;;5036330;28;20040;-43
2021/10/31 07:22:03;;;;;;;93.93;69.65;;;;;;;;;;5035046;28;20550;-42
2021/10/31 07:24:28;;;;;;;19.90;14.55;;;;;;;;;;5034703;28;20029;-41
2021/10/31 07:26:53;;;;;;;20.80;11.50;;;;;;;;;;5036046;28;20036;-44
2021/10/31 07:29:19;;;;;;;17.95;13.63;;;;;;;;;;5037006;28;20025;-42
2021/10/31 07:31:46;;;;;;;71.63;59.95;;;;;;;;;;5036730;28;20029;-43
2021/10/31 07:34:12;;;;;;;51.85;36.80;;;;;;;;;;5040037;28;20040;-45
2021/10/31 07:36:38;;;;;;;33.28;29.90;;;;;;;;;;5031978;28;20021;-48
2021/10/31 07:39:03;;;;;;;21.55;17.25;;;;;;;;;;5036559;28;20435;-43
2021/10/31 07:41:29;;;;;;;93.55;58.63;;;;;;;;;;5039293;28;20147;-42
2021/10/31 07:43:55;;;;;;;91.45;65.45;;;;;;;;;;5036097;28;20065;-47
2021/10/31 07:46:20;;;;;;;71.38;63.92;;;;;;;;;;5035177;28;20072;-41
2021/10/31 07:48:46;;;;;;;90.15;79.00;;;;;;;;;;5035067;28;20029;-41
2021/10/31 07:51:11;;;;;;;77.47;62.70;;;;;;;;;;5035521;28;20041;-40
2021/10/31 07:53:40;;;;;;;68.72;57.40;;;;;;;;;;5037918;28;20109;-41
2021/10/31 07:56:05;;;;;;;83.88;56.22;;;;;;;;;;5032814;28;20077;-43
2021/10/31 07:58:31;;;;;;;52.50;46.72;;;;;;;;;;5035833;28;20058;-40
2021/10/31 08:00:56;;;;;;;15.75;12.48;;;;;;;;;;5033194;28;20026;-41
2021/10/31 08:03:21;;;;;;;12.63;9.98;;;;;;;;;;5038868;28;20025;-43
2021/10/31 08:05:48;;;;;;;11.60;9.05;;;;;;;;;;5036039;28;20494;-44
2021/10/31 08:08:13;;;;;;;4.97;3.63;;;;;;;;;;5036108;28;20026;-44
2021/10/31 08:10:39;;;;;;;32.83;27.00;;;;;;;;;;5038041;28;20070;-44
2021/10/31 08:13:04;;;;;;;22.50;20.25;;;;;;;;;;5034350;28;20033;-40
2021/10/31 08:15:30;;;;;;;24.38;14.60;;;;;;;;;;5029867;28;20025;-43
2021/10/31 08:17:56;;;;;;;11.63;8.20;;;;;;;;;;5038491;28;20025;-48
2021/10/31 08:20:21;;;;;;;6.35;5.00;;;;;;;;;;5040885;28;20503;-46
2021/10/31 08:22:46;;;;;;;9.05;5.97;;;;;;;;;;5036550;28;20026;-41
2021/10/31 08:25:12;;;;;;;5.47;2.22;;;;;;;;;;5035361;28;20377;-46
2021/10/31 08:27:37;;;;;;;8.73;3.15;;;;;;;;;;5035698;28;20048;-41
2021/10/31 08:30:03;;;;;;;6.03;2.33;;;;;;;;;;5035167;28;20029;-42
2021/10/31 08:32:32;;;;;;;4.72;4.25;;;;;;;;;;5036813;28;20026;-41
2021/10/31 08:34:57;;;;;;;12.70;4.72;;;;;;;;;;5037878;28;20385;-41
2021/10/31 08:37:22;;;;;;;4.28;2.67;;;;;;;;;;5033941;28;20032;-44
2021/10/31 08:39:50;;;;;;;11.13;2.25;;;;;;;;;;5036993;28;20026;-42
2021/10/31 08:42:18;;;;;;;3.72;1.80;;;;;;;;;;5036754;28;20029;-42
2021/10/31 08:44:44;;;;;;;5.40;2.28;;;;;;;;;;5034223;28;20028;-43
2021/10/31 08:47:18;;;;;;;7.13;4.20;;;;;;;;;;5032971;28;20049;-44
2021/10/31 08:49:43;;;;;;;2.13;1.35;;;;;;;;;;5029784;28;20020;-46
2021/10/31 08:52:09;;;;;;;5.25;1.48;;;;;;;;;;5033747;28;20086;-41
2021/10/31 08:54:35;;;;;;;0.95;0.80;;;;;;;;;;5041550;28;20075;-41
2021/10/31 08:57:01;;;;;;;1.95;0.68;;;;;;;;;;5037976;28;20021;-47
2021/10/31 08:59:26;;;;;;;0.95;0.50;;;;;;;;;;5037390;28;20394;-43
2021/10/31 09:01:51;;;;;;;4.40;2.42;;;;;;;;;;5041992;28;20025;-41
2021/10/31 09:04:16;;;;;;;5.03;0.70;;;;;;;;;;5038390;28;20518;-43
2021/10/31 09:06:42;;;;;;;2.25;0.63;;;;;;;;;;5037555;28;20112;-46
2021/10/31 09:09:07;;;;;;;0.65;0.32;;;;;;;;;;5041757;28;20105;-42
2021/10/31 09:11:32;;;;;;;5.85;0.80;;;;;;;;;;5039242;28;20055;-42
2021/10/31 09:13:58;;;;;;;3.25;0.75;;;;;;;;;;5036724;28;20028;-43
2021/10/31 09:16:25;;;;;;;1.42;0.60;;;;;;;;;;5039707;28;20108;-45
2021/10/31 09:18:50;;;;;;;4.57;0.55;;;;;;;;;;5039277;28;20099;-46
2021/10/31 09:21:18;;;;;;;0.50;0.35;;;;;;;;;;5041722;28;20029;-41
2021/10/31 09:23:43;;;;;;;2.45;0.75;;;;;;;;;;5037427;28;20033;-44
2021/10/31 09:26:08;;;;;;;2.03;0.40;;;;;;;;;;5037320;28;20038;-41
2021/10/31 09:28:35;;;;;;;1.50;0.45;;;;;;;;;;5037122;28;20050;-42
2021/10/31 09:31:01;;;;;;;1.83;0.40;;;;;;;;;;5039369;28;20025;-45
2021/10/31 09:33:26;;;;;;;1.83;0.50;;;;;;;;;;5037977;28;20432;-42
2021/10/31 09:35:57;;;;;;;1.85;1.30;;;;;;;;;;5038563;28;20121;-46
2021/10/31 09:38:26;;;;;;;1.25;1.10;;;;;;;;;;5039326;28;20072;-44
2021/10/31 09:40:51;;;;;;;2.40;1.05;;;;;;;;;;5037510;28;20025;-42
2021/10/31 09:43:17;;;;;;;1.30;0.60;;;;;;;;;;5040119;28;20079;-42
2021/10/31 09:45:42;;;;;;;1.25;0.50;;;;;;;;;;5039818;28;20045;-45
2021/10/31 09:48:12;;;;;;;5.05;1.83;;;;;;;;;;5036821;28;20041;-44
2021/10/31 09:50:39;;;;;;;1.20;0.60;;;;;;;;;;5037895;28;20017;-44
2021/10/31 09:53:05;;;;;;;3.60;0.70;;;;;;;;;;5037536;28;20053;-43
2021/10/31 09:55:31;;;;;;;9.82;1.60;;;;;;;;;;5039507;28;20053;-42
2021/10/31 09:57:57;;;;;;;1.05;0.77;;;;;;;;;;5038205;28;20576;-41
2021/10/31 10:00:52;;;;;;;0.32;0.30;;;;;;;;;;5037387;28;20094;-40
2021/10/31 10:03:37;;;;;;;3.22;0.90;;;;;;;;;;5035672;28;20032;-39
2021/10/31 10:06:10;;;;;;;10.93;1.23;;;;;;;;;;5037284;28;20028;-41
2021/10/31 10:08:36;;;;;;;5.85;0.75;;;;;;;;;;5037459;28;20048;-43
2021/10/31 10:11:01;;;;;;;2.42;1.45;;;;;;;;;;5035263;28;20516;-42
2021/10/31 10:13:31;;;;;;;4.95;0.60;;;;;;;;;;5035653;28;20021;-43
2021/10/31 10:16:12;;;;;;;4.55;1.27;;;;;;;;;;5033998;28;20440;-42
2021/10/31 10:18:37;;;;;;;1.38;0.63;;;;;;;;;;5036056;28;20021;-41
2021/10/31 10:21:16;;;;;;;1.65;0.80;;;;;;;;;;5035686;28;20681;-45
2021/10/31 10:23:49;;;;;;;10.48;0.80;;;;;;;;;;5037025;28;20017;-43
2021/10/31 10:26:22;;;;;;;2.47;0.43;;;;;;;;;;5037222;28;20036;-41
2021/10/31 10:28:48;;;;;;;0.75;0.20;;;;;;;;;;5037756;28;20470;-42
2021/10/31 10:31:23;;;;;;;3.67;0.65;;;;;;;;;;5039219;28;20040;-42
2021/10/31 10:33:49;;;;;;;0.63;0.40;;;;;;;;;;5032436;28;20014;-42
2021/10/31 10:36:16;;;;;;;8.00;6.60;;;;;;;;;;5036545;28;20233;-46
2021/10/31 10:38:42;;;;;;;1.35;0.65;;;;;;;;;;5033698;28;20067;-43
2021/10/31 10:41:28;;;;;;;0.90;0.40;;;;;;;;;;5034230;28;20017;-46
2021/10/31 10:43:54;;;;;;;4.43;0.80;;;;;;;;;;5036161;28;20491;-44
2021/10/31 10:46:21;;;;;;;3.25;0.35;;;;;;;;;;4992697;28;1300903;-42
2021/10/31 10:48:53;;;;;;;6.70;0.95;;;;;;;;;;5035688;28;20037;-42
2021/10/31 10:51:19;;;;;;;5.60;0.52;;;;;;;;;;5039175;28;20029;-40
2021/10/31 10:53:44;;;;;;;8.30;0.60;;;;;;;;;;5039668;28;20021;-43
2021/10/31 10:56:12;;;;;;;2.63;0.35;;;;;;;;;;5035826;28;20029;-41
2021/10/31 10:58:49;;;;;;;1.30;0.45;;;;;;;;;;5035073;28;20025;-40
2021/10/31 11:01:17;;;;;;;0.88;0.50;;;;;;;;;;5037317;28;20017;-42
2021/10/31 11:03:42;;;;;;;2.60;0.50;;;;;;;;;;5035996;28;20024;-41
2021/10/31 11:06:08;;;;;;;3.15;1.10;;;;;;;;;;5037589;28;20013;-40
2021/10/31 11:08:33;;;;;;;1.73;0.68;;;;;;;;;;5036601;28;20021;-39
2021/10/31 11:11:02;;;;;;;26.48;1.30;;;;;;;;;;5035718;28;20029;-43
2021/10/31 11:13:28;;;;;;;3.80;1.20;;;;;;;;;;5037274;28;20028;-39
2021/10/31 11:15:54;;;;;;;2.28;0.75;;;;;;;;;;5038317;28;20640;-39
2021/10/31 11:18:19;;;;;;;0.43;0.20;;;;;;;;;;5035008;28;20028;-40
2021/10/31 11:20:46;;;;;;;1.40;0.52;;;;;;;;;;5034767;28;20021;-43
2021/10/31 11:23:12;;;;;;;7.28;0.95;;;;;;;;;;5039112;28;20465;-40
2021/10/31 11:25:39;;;;;;;1.95;0.40;;;;;;;;;;5034921;28;20371;-47
2021/10/31 11:28:05;;;;;;;0.75;0.20;;;;;;;;;;5036375;28;20020;-45
2021/10/31 11:30:32;;;;;;;0.28;0.20;;;;;;;;;;5034151;28;20480;-42
2021/10/31 11:32:58;;;;;;;1.08;0.90;;;;;;;;;;5037374;28;20020;-43
2021/10/31 11:35:24;;;;;;;0.65;0.28;;;;;;;;;;5035905;28;20037;-43
2021/10/31 11:37:55;;;;;;;2.38;0.90;;;;;;;;;;5037894;28;20141;-42
2021/10/31 11:40:40;;;;;;;3.45;0.63;;;;;;;;;;5037040;28;20017;-44
2021/10/31 11:43:14;;;;;;;0.73;0.22;;;;;;;;;;5036300;28;20109;-43
2021/10/31 11:45:42;;;;;;;3.90;0.50;;;;;;;;;;5037893;28;20140;-44
2021/10/31 11:48:11;;;;;;;2.25;1.05;;;;;;;;;;5038131;28;20099;-44
2021/10/31 11:50:39;;;;;;;2.72;0.70;;;;;;;;;;5036373;28;20137;-45
2021/10/31 11:53:08;;;;;;;3.15;0.60;;;;;;;;;;5038423;28;20086;-40
2021/10/31 11:55:41;;;;;;;0.73;0.40;;;;;;;;;;5037691;28;20112;-43
2021/10/31 11:58:13;;;;;;;19.15;2.05;;;;;;;;;;5035636;28;20066;-39
2021/10/31 12:00:49;;;;;;;1.60;0.30;;;;;;;;;;5035267;28;20109;-43
2021/10/31 12:03:34;;;;;;;2.40;1.23;;;;;;;;;;5036941;28;20069;-42
2021/10/31 12:06:00;;;;;;;1.27;0.45;;;;;;;;;;5042000;28;20032;-44
2021/10/31 12:08:46;;;;;;;3.03;0.73;;;;;;;;;;5037780;28;20018;-43
2021/10/31 12:11:11;;;;;;;6.25;0.73;;;;;;;;;;5025791;28;20041;-47
2021/10/31 12:13:51;;;;;;;0.10;0.10;;;;;;;;;;5042363;28;20503;-43
2021/10/31 12:16:17;;;;;;;2.55;1.20;;;;;;;;;;5033902;28;20064;-46
2021/10/31 12:18:49;;;;;;;3.80;1.38;;;;;;;;;;5034119;28;20472;-43
2021/10/31 12:21:17;;;;;;;2.13;0.80;;;;;;;;;;5036305;28;20029;-43
2021/10/31 12:24:01;;;;;;;1.17;0.80;;;;;;;;;;5035058;28;20491;-40
2021/10/31 12:26:31;;;;;;;1.08;0.55;;;;;;;;;;5037769;28;20021;-46
2021/10/31 12:29:15;;;;;;;4.03;1.55;;;;;;;;;;5032866;28;20027;-44
2021/10/31 12:31:59;;;;;;;4.90;1.00;;;;;;;;;;5040518;28;20057;-41
2021/10/31 12:34:25;;;;;;;2.53;0.38;;;;;;;;;;5036164;28;20104;-42
2021/10/31 12:36:54;;;;;;;8.10;1.52;;;;;;;;;;5037897;28;20580;-46
2021/10/31 12:39:27;;;;;;;2.03;0.75;;;;;;;;;;5037109;28;20025;-46
2021/10/31 12:42:12;;;;;;;8.88;1.00;;;;;;;;;;5039135;28;20566;-44
2021/10/31 12:44:38;;;;;;;3.50;0.77;;;;;;;;;;5034501;28;20065;-41
2021/10/31 12:47:08;;;;;;;1.73;0.80;;;;;;;;;;5034780;28;20045;-45
2021/10/31 12:49:33;;;;;;;3.30;0.68;;;;;;;;;;5034309;28;20021;-46
2021/10/31 12:52:03;;;;;;;1.65;0.43;;;;;;;;;;5031506;28;20040;-41
2021/10/31 12:54:33;;;;;;;2.88;1.25;;;;;;;;;;5035318;28;20526;-42
2021/10/31 12:56:59;;;;;;;5.40;1.23;;;;;;;;;;5037119;28;20029;-41
2021/10/31 12:59:25;;;;;;;5.95;0.70;;;;;;;;;;5035530;28;20041;-44
2021/10/31 13:02:07;;;;;;;1.90;0.63;;;;;;;;;;5035728;28;20491;-41
2021/10/31 13:04:52;;;;;;;3.78;0.50;;;;;;;;;;5034603;28;20032;-41
2021/10/31 13:07:18;;;;;;;1.02;0.52;;;;;;;;;;5034760;28;20029;-42
2021/10/31 13:09:45;;;;;;;1.33;0.32;;;;;;;;;;5032897;28;20703;-42
2021/10/31 13:12:29;;;;;;;1.30;0.73;;;;;;;;;;5037110;28;20021;-41
2021/10/31 13:15:01;;;;;;;2.08;1.38;;;;;;;;;;5034931;28;20025;-41
2021/10/31 13:17:31;;;;;;;3.28;0.98;;;;;;;;;;5035169;28;20024;-43
2021/10/31 13:20:05;;;;;;;4.18;0.80;;;;;;;;;;5066569;28;20075;-45
2021/10/31 13:22:30;;;;;;;8.63;1.33;;;;;;;;;;5036168;28;20473;-44
2021/10/31 13:24:56;;;;;;;8.88;1.55;;;;;;;;;;5033396;28;20024;-44
2021/10/31 13:27:22;;;;;;;6.80;0.98;;;;;;;;;;5036744;28;20017;-43
2021/10/31 13:29:48;;;;;;;14.70;1.83;;;;;;;;;;5035317;28;20067;-41
2021/10/31 13:32:21;;;;;;;20.17;2.17;;;;;;;;;;5034620;28;20115;-45
2021/10/31 13:34:47;;;;;;;2.50;1.30;;;;;;;;;;5036680;28;20029;-43
2021/10/31 13:37:13;;;;;;;5.72;0.98;;;;;;;;;;5038101;28;20017;-43
2021/10/31 13:39:39;;;;;;;3.00;0.50;;;;;;;;;;5037654;28;20017;-41
2021/10/31 13:42:10;;;;;;;9.25;1.02;;;;;;;;;;5038376;28;20025;-43
2021/10/31 13:44:36;;;;;;;2.75;1.17;;;;;;;;;;5038113;28;20526;-42
2021/10/31 13:47:16;;;;;;;3.40;1.15;;;;;;;;;;5039975;28;20048;-44
2021/10/31 13:49:43;;;;;;;2.47;1.05;;;;;;;;;;5041061;28;20101;-42
2021/10/31 13:52:09;;;;;;;8.50;2.30;;;;;;;;;;5038509;28;20020;-43
2021/10/31 13:54:34;;;;;;;2.75;1.25;;;;;;;;;;5037340;28;20025;-43
2021/10/31 13:57:00;;;;;;;3.33;0.90;;;;;;;;;;5039875;28;20017;-42
2021/10/31 13:59:26;;;;;;;4.55;0.82;;;;;;;;;;5039311;28;20467;-46
2021/10/31 14:01:57;;;;;;;10.63;1.95;;;;;;;;;;5038365;28;20040;-43
2021/10/31 14:04:26;;;;;;;3.60;1.27;;;;;;;;;;5037695;28;20021;-43
2021/10/31 14:07:11;;;;;;;2.30;1.15;;;;;;;;;;5037849;28;20026;-41
2021/10/31 14:09:47;;;;;;;1.45;1.05;;;;;;;;;;5039318;28;20072;-42
2021/10/31 14:12:23;;;;;;;2.70;0.82;;;;;;;;;;5037608;28;20539;-42
2021/10/31 14:14:51;;;;;;;4.53;1.17;;;;;;;;;;5038025;28;20463;-41
2021/10/31 14:17:21;;;;;;;2.95;0.70;;;;;;;;;;5034650;28;20435;-43
2021/10/31 14:19:51;;;;;;;3.90;2.08;;;;;;;;;;5037787;28;20045;-42
2021/10/31 14:22:20;;;;;;;6.07;1.30;;;;;;;;;;5036702;28;20085;-42
2021/10/31 14:24:58;;;;;;;3.55;1.60;;;;;;;;;;5040497;28;20029;-43
2021/10/31 14:27:25;;;;;;;9.20;2.45;;;;;;;;;;5039902;28;20640;-43
2021/10/31 14:29:51;;;;;;;6.75;1.30;;;;;;;;;;5039427;28;20333;-42
2021/10/31 14:32:16;;;;;;;2.75;1.63;;;;;;;;;;5037162;28;20032;-40
2021/10/31 14:35:01;;;;;;;5.40;1.38;;;;;;;;;;5034593;28;20719;-45
2021/10/31 14:37:27;;;;;;;6.95;2.05;;;;;;;;;;5037442;28;20227;-48
2021/10/31 14:39:52;;;;;;;4.82;1.50;;;;;;;;;;5039000;28;20543;-44
2021/10/31 14:42:29;;;;;;;1.17;0.98;;;;;;;;;;5037787;28;20354;-41
2021/10/31 14:44:55;;;;;;;8.88;1.13;;;;;;;;;;5036150;28;20120;-43